Time;durP1;ratioP1;P1;durP2;ratioP2;P2;SDS_P1;SDS_P2;PMS_P1;PMS_P2;Temp;Humidity;BMP_temperature;BMP_pressure;BME280_temperature;BME280_humidity;BME280_pressure;Samples;Min_cycle;Max_cycle;Signal;HPM_P1;HPM_P2
2023/06/26 00:01:25;;;;;;;10.43;6.53;;;24.50;59.70;;;;;;7677545;22;80889;-74
2023/06/26 00:04:25;;;;;;;17.80;6.50;;;24.50;59.70;;;;;;7676366;22;80839;-73
2023/06/26 00:07:26;;;;;;;9.70;6.45;;;24.60;59.70;;;;;;7675879;22;80862;-68
2023/06/26 00:10:27;;;;;;;20.27;6.57;;;24.60;59.70;;;;;;7676889;22;80205;-71
2023/06/26 00:13:27;;;;;;;8.63;5.97;;;24.60;59.70;;;;;;7675471;22;80826;-71
2023/06/26 00:16:28;;;;;;;7.18;5.45;;;24.60;59.70;;;;;;7676381;22;80660;-69
2023/06/26 00:19:28;;;;;;;11.05;5.97;;;24.70;59.90;;;;;;7675631;22;80466;-68
2023/06/26 00:22:29;;;;;;;9.88;6.28;;;24.70;59.70;;;;;;7676631;22;80847;-67
2023/06/26 00:25:29;;;;;;;7.43;5.90;;;24.70;59.60;;;;;;7676153;22;81536;-68
2023/06/26 00:28:30;;;;;;;8.57;6.30;;;24.80;59.60;;;;;;7650144;22;80706;-68
2023/06/26 00:31:31;;;;;;;10.30;6.43;;;24.70;59.40;;;;;;7671817;22;80588;-69
2023/06/26 00:34:32;;;;;;;9.02;5.88;;;24.50;59.70;;;;;;7678661;22;81237;-69
2023/06/26 00:37:32;;;;;;;10.18;5.95;;;24.40;60.10;;;;;;7678421;22;80393;-72
2023/06/26 00:40:33;;;;;;;9.63;5.95;;;24.40;60.20;;;;;;7676568;22;81465;-70
2023/06/26 00:43:33;;;;;;;11.13;6.38;;;24.30;60.30;;;;;;7651080;22;82211;-70
2023/06/26 00:46:34;;;;;;;10.68;6.38;;;24.10;60.70;;;;;;7678191;22;80776;-69
2023/06/26 00:49:34;;;;;;;13.63;6.10;;;24.10;60.70;;;;;;7677647;22;81075;-70
2023/06/26 00:52:35;;;;;;;13.23;6.30;;;23.90;61.00;;;;;;7677491;22;80478;-70
2023/06/26 00:55:36;;;;;;;7.50;5.90;;;23.80;61.40;;;;;;7651539;22;82303;-71
2023/06/26 00:58:37;;;;;;;10.93;6.03;;;23.70;61.60;;;;;;7652196;22;81785;-72
2023/06/26 01:01:37;;;;;;;9.93;6.65;;;23.70;61.90;;;;;;7650862;22;82971;-70
2023/06/26 01:04:46;;;;;;;10.13;6.25;;;23.20;63.20;;;;;;7678011;22;80520;-75
2023/06/26 01:07:46;;;;;;;15.57;7.00;;;23.00;64.10;;;;;;7678008;22;80777;-71
2023/06/26 01:10:47;;;;;;;9.75;6.50;;;23.10;64.30;;;;;;7679031;22;80437;-71
2023/06/26 01:13:48;;;;;;;9.07;6.57;;;23.00;64.30;;;;;;7677960;22;80415;-71
2023/06/26 01:16:48;;;;;;;12.40;7.00;;;23.00;64.30;;;;;;7677264;22;80382;-71
2023/06/26 01:19:49;;;;;;;12.18;6.68;;;22.90;64.60;;;;;;7679231;22;80495;-72
2023/06/26 01:22:50;;;;;;;8.57;6.00;;;22.90;64.70;;;;;;7678887;22;81215;-71
2023/06/26 01:25:50;;;;;;;10.52;7.07;;;23.00;64.30;;;;;;7678656;22;80299;-70
2023/06/26 01:28:51;;;;;;;10.95;6.68;;;23.00;64.30;;;;;;7678572;22;80327;-71
2023/06/26 01:31:52;;;;;;;8.75;6.35;;;23.10;63.80;;;;;;7677505;22;80669;-69
2023/06/26 01:34:52;;;;;;;11.32;7.32;;;23.20;63.60;;;;;;7678689;22;80656;-70
2023/06/26 01:37:54;;;;;;;13.23;6.90;;;23.20;63.60;;;;;;7650710;22;83108;-72
2023/06/26 01:40:54;;;;;;;14.32;7.65;;;23.10;64.10;;;;;;7685435;22;80583;-72
2023/06/26 01:43:55;;;;;;;12.48;6.88;;;23.00;64.40;;;;;;7657185;22;82413;-71
2023/06/26 01:46:55;;;;;;;12.50;7.13;;;22.70;65.00;;;;;;7680811;22;80866;-71
2023/06/26 01:49:56;;;;;;;11.32;6.43;;;22.70;65.20;;;;;;7651482;22;81331;-72
2023/06/26 01:52:57;;;;;;;10.88;7.35;;;22.70;65.00;;;;;;7678885;22;80355;-71
2023/06/26 01:55:57;;;;;;;12.00;7.10;;;22.70;65.10;;;;;;7677804;22;80309;-72
2023/06/26 01:58:58;;;;;;;11.45;7.13;;;22.60;65.20;;;;;;7651550;22;82740;-71
2023/06/26 02:01:58;;;;;;;10.10;7.05;;;22.50;65.90;;;;;;7650597;22;81668;-71
2023/06/26 02:04:59;;;;;;;10.63;6.72;;;22.40;66.20;;;;;;7678430;22;80445;-71
2023/06/26 02:08:01;;;;;;;29.15;7.28;;;22.50;65.90;;;;;;7680836;22;80748;-74
2023/06/26 02:11:04;;;;;;;9.10;7.10;;;22.40;66.10;;;;;;7650066;22;82272;-69
2023/06/26 02:14:05;;;;;;;12.15;6.70;;;22.60;65.30;;;;;;7678959;22;80779;-70
2023/06/26 02:17:05;;;;;;;13.07;6.57;;;22.80;64.70;;;;;;7650954;22;80391;-69
2023/06/26 02:20:06;;;;;;;9.30;6.25;;;22.80;64.50;;;;;;7677767;22;80247;-68
2023/06/26 02:23:06;;;;;;;9.05;6.30;;;23.00;64.10;;;;;;7677697;22;81208;-66
2023/06/26 02:26:09;;;;;;;9.63;6.18;;;23.20;63.30;;;;;;7649372;22;83121;-69
2023/06/26 02:29:10;;;;;;;9.65;6.40;;;23.30;63.10;;;;;;7678311;22;80744;-71
2023/06/26 02:32:10;;;;;;;10.63;7.13;;;23.30;62.50;;;;;;7650474;22;83348;-69
2023/06/26 02:35:11;;;;;;;9.70;6.43;;;23.40;62.40;;;;;;7677969;22;80205;-69
2023/06/26 02:38:16;;;;;;;11.48;6.22;;;23.40;62.50;;;;;;7676758;22;81493;-69
2023/06/26 02:41:16;;;;;;;7.95;5.68;;;23.40;62.00;;;;;;7652142;22;80596;-69
2023/06/26 02:44:17;;;;;;;12.18;6.20;;;23.40;62.00;;;;;;7691165;22;79818;-69
2023/06/26 02:47:18;;;;;;;10.18;5.88;;;23.30;62.10;;;;;;7650215;22;82002;-69
2023/06/26 02:50:19;;;;;;;8.63;5.85;;;23.40;62.00;;;;;;7650616;22;83376;-69
2023/06/26 02:53:38;;;;;;;9.00;5.82;;;23.50;61.80;;;;;;7676040;22;85119;-69
2023/06/26 02:56:40;;;;;;;10.30;5.85;;;23.60;61.50;;;;;;7650579;22;81245;-69
2023/06/26 02:59:41;;;;;;;10.95;6.25;;;23.60;61.20;;;;;;7650391;22;83143;-68
2023/06/26 03:02:43;;;;;;;10.57;6.38;;;23.60;61.20;;;;;;7649654;22;83541;-68
2023/06/26 03:05:46;;;;;;;9.73;6.20;;;23.60;61.40;;;;;;7648890;22;80501;-70
2023/06/26 03:08:47;;;;;;;9.82;6.57;;;23.60;61.20;;;;;;7651914;22;82249;-68
2023/06/26 03:11:49;;;;;;;8.60;6.15;;;23.70;61.40;;;;;;7649275;22;81267;-69
2023/06/26 03:14:49;;;;;;;10.18;6.75;;;23.70;61.10;;;;;;7650790;22;83267;-69
2023/06/26 03:17:50;;;;;;;10.45;6.47;;;23.70;61.20;;;;;;7648836;22;81724;-70
2023/06/26 03:20:57;;;;;;;10.35;6.75;;;23.60;61.30;;;;;;7649784;22;82998;-72
2023/06/26 03:23:59;;;;;;;12.73;7.18;;;23.70;61.20;;;;;;7651334;22;83336;-66
2023/06/26 03:26:59;;;;;;;9.55;7.10;;;23.70;60.90;;;;;;7624861;22;80418;-64
2023/06/26 03:30:00;;;;;;;9.32;6.35;;;23.60;61.20;;;;;;7675727;22;81394;-61
2023/06/26 03:33:01;;;;;;;12.57;6.75;;;23.70;61.60;;;;;;7647535;22;83163;-62
2023/06/26 03:36:02;;;;;;;12.15;6.68;;;23.90;61.40;;;;;;7650667;22;83190;-59
2023/06/26 03:39:04;;;;;;;9.15;6.20;;;24.00;60.90;;;;;;7650143;22;82304;-61
2023/06/26 03:42:04;;;;;;;18.40;6.47;;;24.20;60.80;;;;;;7649458;22;82708;-64
2023/06/26 03:45:05;;;;;;;11.23;6.90;;;24.30;61.00;;;;;;7676619;22;80656;-64
2023/06/26 03:48:07;;;;;;;12.18;5.85;;;24.40;60.80;;;;;;7649275;22;82966;-63
2023/06/26 03:51:10;;;;;;;10.48;6.15;;;24.50;60.60;;;;;;7648247;22;83027;-63
2023/06/26 03:54:12;;;;;;;7.35;5.43;;;24.50;60.40;;;;;;7648367;22;83237;-63
2023/06/26 03:57:12;;;;;;;10.40;6.30;;;24.60;60.30;;;;;;7623904;22;83948;-65
2023/06/26 04:00:13;;;;;;;7.70;5.43;;;24.70;60.40;;;;;;7675095;22;80855;-66
2023/06/26 04:03:17;;;;;;;9.57;6.55;;;24.70;60.30;;;;;;7674109;22;81253;-63
2023/06/26 04:06:17;;;;;;;7.95;5.88;;;24.70;60.20;;;;;;7643677;22;81762;-65
2023/06/26 04:09:19;;;;;;;13.65;5.00;;;24.80;60.10;;;;;;7675712;22;80867;-69
2023/06/26 04:12:19;;;;;;;9.73;6.18;;;24.80;60.20;;;;;;7650585;22;82281;-66
2023/06/26 04:15:20;;;;;;;10.18;5.65;;;24.80;60.10;;;;;;7677441;22;80235;-64
2023/06/26 04:18:20;;;;;;;8.70;6.10;;;24.90;60.10;;;;;;7676980;22;80519;-65
2023/06/26 04:21:21;;;;;;;8.30;5.43;;;24.90;60.20;;;;;;7675961;22;80249;-64
2023/06/26 04:24:22;;;;;;;8.27;5.38;;;24.90;60.50;;;;;;7644599;22;81832;-65
2023/06/26 04:27:22;;;;;;;9.10;5.68;;;24.90;61.20;;;;;;7661871;22;82468;-66
2023/06/26 04:30:23;;;;;;;9.57;6.22;;;25.00;61.40;;;;;;7668860;22;81273;-66
2023/06/26 04:33:23;;;;;;;10.13;6.15;;;25.00;61.70;;;;;;7668720;22;80962;-66
2023/06/26 04:36:28;;;;;;;14.45;6.88;;;25.00;62.40;;;;;;7679074;22;80220;-69
2023/06/26 04:39:28;;;;;;;11.15;6.88;;;25.00;62.90;;;;;;7675323;22;84512;-66
2023/06/26 04:42:29;;;;;;;13.15;6.20;;;25.10;63.00;;;;;;7677314;22;80429;-64
2023/06/26 04:45:29;;;;;;;13.07;6.57;;;25.00;63.10;;;;;;7676994;22;80918;-67
2023/06/26 04:48:30;;;;;;;24.08;6.53;;;25.00;63.30;;;;;;7677287;22;80918;-59
2023/06/26 04:51:31;;;;;;;12.05;5.32;;;25.10;63.10;;;;;;7673056;22;80168;-72
2023/06/26 04:54:32;;;;;;;10.32;6.63;;;25.10;62.40;;;;;;7671139;22;80349;-64
2023/06/26 04:57:32;;;;;;;16.42;5.88;;;25.10;62.40;;;;;;7676635;22;80896;-64
2023/06/26 05:00:35;;;;;;;15.35;7.15;;;25.20;62.40;;;;;;7676948;22;80294;-58
2023/06/26 05:03:37;;;;;;;15.38;7.03;;;24.90;61.60;;;;;;7676621;22;80283;-58
2023/06/26 05:06:37;;;;;;;12.02;6.05;;;24.90;61.90;;;;;;7676766;22;81354;-60
2023/06/26 05:09:38;;;;;;;14.20;7.03;;;24.90;61.90;;;;;;7674323;22;80297;-58
2023/06/26 05:12:38;;;;;;;10.35;6.43;;;24.90;61.80;;;;;;7671536;22;80553;-60
2023/06/26 05:15:39;;;;;;;10.18;6.93;;;24.70;61.40;;;;;;7671738;22;80593;-58
2023/06/26 05:18:39;;;;;;;15.15;6.55;;;24.70;61.50;;;;;;7670901;22;80456;-58
2023/06/26 05:21:40;;;;;;;10.63;6.25;;;24.80;61.40;;;;;;7674710;22;80895;-58
2023/06/26 05:24:40;;;;;;;10.85;6.43;;;24.60;61.40;;;;;;7675363;22;81109;-60
2023/06/26 05:27:41;;;;;;;13.80;6.80;;;24.70;61.40;;;;;;7580530;22;81913;-60
2023/06/26 05:30:41;;;;;;;13.90;6.80;;;24.70;61.10;;;;;;7625157;22;82029;-60
2023/06/26 05:33:42;;;;;;;10.68;6.55;;;24.60;60.90;;;;;;7673622;22;81471;-60
2023/06/26 05:36:43;;;;;;;11.48;8.30;;;24.40;61.10;;;;;;7673285;22;80550;-59
2023/06/26 05:39:43;;;;;;;12.27;7.90;;;23.60;62.30;;;;;;7653946;22;80642;-60
2023/06/26 05:42:44;;;;;;;13.32;8.65;;;23.10;63.90;;;;;;7660703;22;80386;-59
2023/06/26 05:45:44;;;;;;;13.00;7.55;;;22.90;64.80;;;;;;7672720;22;81388;-59
2023/06/26 05:48:45;;;;;;;12.30;7.20;;;22.90;65.60;;;;;;7677452;22;80450;-59
2023/06/26 05:51:45;;;;;;;11.88;7.10;;;23.00;65.10;;;;;;7674213;22;80301;-60
2023/06/26 05:54:46;;;;;;;10.95;7.10;;;23.00;65.40;;;;;;7677936;22;80518;-59
2023/06/26 05:57:46;;;;;;;9.77;6.95;;;23.40;64.70;;;;;;7676202;22;80680;-62
2023/06/26 06:00:47;;;;;;;10.88;7.55;;;23.40;63.50;;;;;;7677952;22;80094;-61
2023/06/26 06:03:47;;;;;;;9.40;6.78;;;23.50;63.70;;;;;;7648828;22;80484;-60
2023/06/26 06:06:48;;;;;;;13.70;8.13;;;23.60;63.40;;;;;;7677117;22;81562;-60
2023/06/26 06:09:48;;;;;;;13.02;7.65;;;23.60;63.40;;;;;;7651101;22;83074;-64
2023/06/26 06:12:49;;;;;;;11.52;6.90;;;23.70;62.80;;;;;;7674538;22;80937;-64
2023/06/26 06:15:49;;;;;;;8.95;6.30;;;23.80;62.80;;;;;;7675508;22;80445;-64
2023/06/26 06:18:50;;;;;;;15.10;8.38;;;23.90;62.40;;;;;;7676873;22;80607;-63
2023/06/26 06:21:50;;;;;;;13.75;7.72;;;23.70;62.70;;;;;;7677517;22;80400;-58
2023/06/26 06:24:51;;;;;;;13.20;7.45;;;23.40;63.90;;;;;;7676590;22;80693;-58
2023/06/26 06:27:52;;;;;;;11.75;6.95;;;23.30;64.60;;;;;;7675285;22;80597;-58
2023/06/26 06:30:52;;;;;;;12.73;6.53;;;23.70;63.60;;;;;;7674448;22;80680;-58
2023/06/26 06:33:54;;;;;;;14.20;7.30;;;23.90;63.10;;;;;;7677861;22;80068;-59
2023/06/26 06:36:54;;;;;;;11.98;7.07;;;24.00;61.90;;;;;;7674633;22;80343;-63
2023/06/26 06:39:55;;;;;;;13.43;7.00;;;24.00;62.40;;;;;;7675337;22;80157;-63
2023/06/26 06:42:55;;;;;;;10.75;6.50;;;23.90;62.40;;;;;;7676266;22;80298;-63
2023/06/26 06:45:56;;;;;;;10.35;6.47;;;24.00;61.50;;;;;;7646061;22;80585;-64
2023/06/26 06:48:56;;;;;;;14.05;7.20;;;24.10;61.50;;;;;;7676771;22;81102;-63
2023/06/26 06:51:57;;;;;;;10.45;6.75;;;23.70;60.40;;;;;;7677457;22;80407;-62
2023/06/26 06:55:05;;;;;;;10.27;6.65;;;23.70;61.10;;;;;;7677912;22;81259;-62
2023/06/26 06:58:05;;;;;;;11.98;6.60;;;24.00;60.70;;;;;;7677511;22;80423;-63
2023/06/26 07:01:06;;;;;;;10.60;6.90;;;24.10;60.40;;;;;;7679455;22;81196;-62
2023/06/26 07:04:06;;;;;;;11.45;6.95;;;24.10;60.00;;;;;;7679216;22;81467;-62
2023/06/26 07:07:07;;;;;;;14.30;7.25;;;24.30;59.90;;;;;;7678839;22;81012;-63
2023/06/26 07:10:08;;;;;;;13.20;7.38;;;24.10;60.20;;;;;;7680010;22;80982;-63
2023/06/26 07:13:08;;;;;;;11.88;6.57;;;24.00;60.20;;;;;;7679770;22;81428;-63
2023/06/26 07:16:11;;;;;;;9.90;6.55;;;24.00;60.30;;;;;;7679250;22;81171;-61
2023/06/26 07:19:11;;;;;;;12.07;6.78;;;24.00;60.40;;;;;;7651776;22;81545;-62
2023/06/26 07:22:12;;;;;;;10.32;7.07;;;24.10;59.80;;;;;;7676322;22;80239;-59
2023/06/26 07:25:12;;;;;;;15.60;7.05;;;24.20;60.00;;;;;;7676980;22;81504;-59
2023/06/26 07:28:13;;;;;;;11.90;7.07;;;24.30;59.40;;;;;;7623582;22;82799;-59
2023/06/26 07:31:14;;;;;;;11.68;6.65;;;24.00;59.40;;;;;;7678969;22;80814;-59
2023/06/26 07:34:14;;;;;;;14.05;7.63;;;24.00;59.80;;;;;;7671471;22;81889;-60
2023/06/26 07:37:15;;;;;;;50.33;29.40;;;24.10;60.00;;;;;;7680980;22;80499;-60
2023/06/26 07:40:17;;;;;;;147.80;83.70;;;24.20;60.40;;;;;;7676130;22;84094;-62
2023/06/26 07:43:18;;;;;;;214.13;114.97;;;24.20;60.00;;;;;;7676332;22;83552;-61
2023/06/26 07:46:18;;;;;;;204.40;109.95;;;24.10;60.00;;;;;;7673789;22;86617;-60
2023/06/26 07:49:19;;;;;;;172.75;89.28;;;24.40;60.30;;;;;;7668784;22;85973;-62
2023/06/26 07:52:19;;;;;;;69.80;37.70;;;24.60;59.80;;;;;;7676795;22;85148;-62
2023/06/26 07:55:20;;;;;;;29.55;16.60;;;24.60;58.60;;;;;;7673498;22;82864;-61
2023/06/26 07:58:20;;;;;;;19.88;10.18;;;24.40;57.50;;;;;;7678162;22;83291;-61
2023/06/26 08:01:21;;;;;;;19.63;8.05;;;24.40;57.40;;;;;;7678718;22;82670;-67
2023/06/26 08:04:21;;;;;;;11.48;7.38;;;24.40;57.00;;;;;;7676186;22;82794;-65
2023/06/26 08:07:22;;;;;;;16.48;9.80;;;24.50;57.40;;;;;;7680278;22;80111;-67
2023/06/26 08:10:22;;;;;;;15.68;7.97;;;24.70;57.40;;;;;;7671231;22;80802;-66
2023/06/26 08:13:23;;;;;;;10.38;6.75;;;24.80;57.00;;;;;;7673785;22;80491;-66
2023/06/26 08:16:23;;;;;;;10.70;5.85;;;24.80;55.30;;;;;;7677813;22;84133;-65
2023/06/26 08:19:24;;;;;;;8.95;5.85;;;24.80;54.50;;;;;;7677640;22;80677;-73
2023/06/26 08:22:24;;;;;;;9.23;5.57;;;24.90;54.20;;;;;;7652446;22;80630;-73
2023/06/26 08:25:25;;;;;;;10.35;5.50;;;24.80;54.40;;;;;;7683280;22;80346;-76
2023/06/26 08:28:25;;;;;;;10.25;5.22;;;24.90;54.60;;;;;;7678876;22;80385;-74
2023/06/26 08:31:26;;;;;;;11.10;5.35;;;25.00;54.90;;;;;;7678137;22;81504;-72
2023/06/26 08:34:27;;;;;;;14.98;5.30;;;25.10;54.60;;;;;;7674734;22;80170;-66
2023/06/26 08:37:27;;;;;;;63.33;11.23;;;25.20;54.00;;;;;;7678967;22;80232;-62
2023/06/26 08:40:28;;;;;;;37.40;7.88;;;25.30;54.40;;;;;;7674190;22;83515;-69
2023/06/26 08:43:28;;;;;;;62.83;13.50;;;25.20;55.20;;;;;;7677265;22;81851;-68
2023/06/26 08:46:29;;;;;;;17.40;6.63;;;25.20;55.20;;;;;;7674785;22;83123;-66
2023/06/26 08:49:29;;;;;;;10.45;4.97;;;25.30;53.00;;;;;;7677339;22;83035;-59
2023/06/26 08:52:30;;;;;;;10.43;5.65;;;25.40;52.50;;;;;;7675932;22;81054;-61
2023/06/26 08:55:30;;;;;;;11.10;5.63;;;25.50;52.60;;;;;;7682333;22;80298;-62
2023/06/26 08:58:31;;;;;;;12.45;4.88;;;25.50;52.70;;;;;;7677835;22;80780;-62
2023/06/26 09:01:32;;;;;;;7.57;4.40;;;25.60;52.40;;;;;;7678343;22;80525;-63
2023/06/26 09:04:32;;;;;;;7.25;4.78;;;25.60;51.10;;;;;;7678300;22;80387;-62
2023/06/26 09:07:33;;;;;;;7.65;4.75;;;25.70;50.80;;;;;;7678388;22;80462;-62
2023/06/26 09:10:33;;;;;;;6.38;4.30;;;25.70;50.80;;;;;;7658694;22;81215;-61
2023/06/26 09:13:34;;;;;;;6.63;4.40;;;25.70;50.60;;;;;;7678878;22;81145;-62
2023/06/26 09:16:34;;;;;;;8.38;4.63;;;25.70;51.10;;;;;;7680898;22;81127;-62
2023/06/26 09:19:35;;;;;;;12.77;5.53;;;25.60;50.00;;;;;;7654083;22;80805;-63
2023/06/26 09:22:35;;;;;;;7.45;4.28;;;25.60;49.60;;;;;;7678470;22;80581;-62
2023/06/26 09:25:36;;;;;;;7.50;4.57;;;25.70;50.10;;;;;;7680290;22;80393;-62
2023/06/26 09:28:36;;;;;;;7.18;4.63;;;25.60;49.80;;;;;;7680853;22;80436;-61
2023/06/26 09:31:37;;;;;;;15.35;4.85;;;25.70;50.10;;;;;;7663787;22;80819;-58
2023/06/26 09:34:37;;;;;;;8.30;4.75;;;25.70;50.70;;;;;;7650928;22;80287;-58
2023/06/26 09:37:38;;;;;;;9.02;4.70;;;25.80;50.90;;;;;;7678654;22;80439;-59
2023/06/26 09:40:38;;;;;;;7.25;4.65;;;25.80;51.30;;;;;;7679415;22;85958;-64
2023/06/26 09:43:39;;;;;;;9.60;4.85;;;25.90;50.70;;;;;;7653018;22;81218;-61
2023/06/26 09:46:40;;;;;;;7.97;5.00;;;25.90;49.90;;;;;;7679903;22;80746;-60
2023/06/26 09:49:40;;;;;;;9.07;5.00;;;25.90;48.80;;;;;;7679999;22;80492;-63
2023/06/26 09:52:41;;;;;;;9.27;4.53;;;26.00;48.80;;;;;;7679156;22;80849;-65
2023/06/26 09:55:43;;;;;;;6.85;4.60;;;26.00;50.00;;;;;;7679990;22;80885;-67
2023/06/26 09:58:44;;;;;;;6.55;4.78;;;26.10;50.20;;;;;;7679474;22;80849;-66
2023/06/26 10:01:44;;;;;;;9.27;5.13;;;26.10;50.40;;;;;;7679222;22;81346;-67
2023/06/26 10:04:45;;;;;;;8.18;4.72;;;26.10;50.30;;;;;;7679285;22;80208;-70
2023/06/26 10:07:45;;;;;;;6.13;4.47;;;26.10;50.30;;;;;;7678180;22;80653;-71
2023/06/26 10:10:46;;;;;;;7.10;5.00;;;26.10;49.30;;;;;;7675862;22;80879;-72
2023/06/26 10:13:47;;;;;;;7.05;4.90;;;26.10;49.50;;;;;;7680120;22;81410;-70
2023/06/26 10:16:47;;;;;;;11.82;4.85;;;26.20;50.70;;;;;;7678705;22;80635;-70
2023/06/26 10:19:48;;;;;;;11.18;4.63;;;26.10;50.80;;;;;;7678240;22;80217;-70
2023/06/26 10:22:48;;;;;;;8.98;4.53;;;26.00;50.20;;;;;;7680338;22;80651;-69
2023/06/26 10:25:49;;;;;;;8.52;4.97;;;26.00;49.90;;;;;;7680054;22;80597;-72
2023/06/26 10:28:51;;;;;;;8.20;4.57;;;26.10;50.90;;;;;;7681342;22;81238;-67
2023/06/26 10:31:52;;;;;;;6.32;4.82;;;26.10;50.60;;;;;;7679162;22;80276;-65
2023/06/26 10:34:52;;;;;;;7.18;4.60;;;26.20;49.80;;;;;;7680630;22;80631;-62
2023/06/26 10:37:53;;;;;;;9.40;4.90;;;26.20;50.10;;;;;;7677715;22;80755;-61
2023/06/26 10:40:53;;;;;;;9.27;5.45;;;26.20;50.70;;;;;;7678321;22;80587;-61
2023/06/26 10:43:54;;;;;;;9.48;5.57;;;26.20;51.10;;;;;;7650206;22;81699;-62
2023/06/26 10:46:55;;;;;;;7.88;5.30;;;26.10;50.80;;;;;;7678910;22;80454;-57
2023/06/26 10:49:56;;;;;;;7.22;5.32;;;26.10;50.50;;;;;;7679978;22;80334;-58
2023/06/26 10:52:56;;;;;;;7.32;5.55;;;26.10;51.20;;;;;;7679296;22;80482;-58
2023/06/26 10:55:57;;;;;;;7.28;5.00;;;26.20;50.40;;;;;;7678664;22;80397;-58
2023/06/26 10:58:57;;;;;;;9.98;5.57;;;26.20;50.50;;;;;;7679809;22;80488;-59
2023/06/26 11:01:58;;;;;;;9.27;5.28;;;26.30;50.10;;;;;;7677459;22;80850;-58
2023/06/26 11:04:58;;;;;;;6.55;5.07;;;26.40;49.80;;;;;;7677390;22;86729;-59
2023/06/26 11:07:59;;;;;;;7.65;5.68;;;26.40;49.70;;;;;;7678307;22;80289;-59
2023/06/26 11:11:00;;;;;;;8.35;5.20;;;26.50;49.20;;;;;;7678060;22;81440;-59
2023/06/26 11:14:00;;;;;;;8.10;4.88;;;26.60;48.90;;;;;;7678696;22;80252;-58
2023/06/26 11:17:01;;;;;;;9.30;5.20;;;26.60;49.10;;;;;;7678653;22;81238;-58
2023/06/26 11:20:01;;;;;;;9.27;5.05;;;26.60;49.80;;;;;;7678966;22;80367;-59
2023/06/26 11:23:02;;;;;;;6.95;5.07;;;26.60;49.40;;;;;;7651419;22;80501;-57
2023/06/26 11:26:02;;;;;;;7.47;4.93;;;26.70;49.40;;;;;;7679262;22;80224;-58
2023/06/26 11:29:03;;;;;;;9.02;4.70;;;26.70;49.80;;;;;;7677983;22;80220;-58
2023/06/26 11:32:05;;;;;;;7.93;5.40;;;26.70;49.90;;;;;;7678571;22;80691;-58
2023/06/26 11:35:05;;;;;;;8.32;4.95;;;26.60;49.70;;;;;;7679436;22;81598;-57
2023/06/26 11:38:06;;;;;;;9.82;5.50;;;26.60;49.30;;;;;;7651934;22;81690;-58
2023/06/26 11:41:08;;;;;;;6.75;4.97;;;26.60;49.20;;;;;;7678516;22;80411;-60
2023/06/26 11:44:09;;;;;;;6.60;5.25;;;26.60;48.20;;;;;;7677618;22;80258;-58
2023/06/26 11:47:09;;;;;;;10.88;5.70;;;26.70;48.80;;;;;;7680325;22;81051;-58
2023/06/26 11:50:10;;;;;;;6.70;5.20;;;26.80;49.20;;;;;;7680418;22;81119;-58
2023/06/26 11:53:11;;;;;;;7.70;4.70;;;26.80;49.00;;;;;;7680187;22;80340;-59
2023/06/26 11:56:12;;;;;;;7.00;5.28;;;26.70;48.40;;;;;;7680630;22;81020;-57
2023/06/26 11:59:13;;;;;;;6.22;4.20;;;26.70;48.30;;;;;;7678655;22;80970;-65
2023/06/26 12:02:13;;;;;;;7.60;4.78;;;26.60;47.70;;;;;;7651196;22;80537;-63
2023/06/26 12:05:14;;;;;;;6.97;5.03;;;26.50;47.20;;;;;;7679132;22;81356;-64
2023/06/26 12:08:14;;;;;;;10.18;5.03;;;26.50;47.20;;;;;;7664431;22;81789;-63
2023/06/26 12:11:15;;;;;;;6.10;4.30;;;26.60;47.30;;;;;;7678914;22;80357;-64
2023/06/26 12:14:15;;;;;;;8.52;4.63;;;26.60;47.50;;;;;;7680493;22;80922;-64
2023/06/26 12:17:16;;;;;;;7.35;4.72;;;26.50;47.40;;;;;;7678106;22;80676;-59
2023/06/26 12:20:16;;;;;;;7.68;4.32;;;26.50;48.30;;;;;;7677208;22;81579;-58
2023/06/26 12:23:17;;;;;;;8.30;5.28;;;26.70;48.60;;;;;;7678381;22;79890;-53
2023/06/26 12:26:17;;;;;;;9.77;4.55;;;26.60;47.80;;;;;;7677519;22;80425;-59
2023/06/26 12:29:18;;;;;;;10.30;5.20;;;26.60;47.70;;;;;;7675471;22;80263;-58
2023/06/26 12:32:18;;;;;;;68.40;32.72;;;26.50;48.10;;;;;;7678570;22;80506;-58
2023/06/26 12:35:19;;;;;;;110.28;53.88;;;26.60;48.40;;;;;;7671912;22;83009;-58
2023/06/26 12:38:20;;;;;;;168.07;87.82;;;26.60;48.60;;;;;;7671488;22;83808;-57
2023/06/26 12:41:21;;;;;;;113.47;56.40;;;26.60;48.80;;;;;;7669622;22;83170;-59
2023/06/26 12:44:21;;;;;;;155.95;74.85;;;26.60;48.40;;;;;;7669749;22;83356;-58
2023/06/26 12:47:22;;;;;;;104.03;52.63;;;26.60;48.60;;;;;;7670914;22;84286;-59
2023/06/26 12:50:22;;;;;;;62.42;30.98;;;26.60;48.50;;;;;;7672071;22;83207;-58
2023/06/26 12:53:23;;;;;;;33.33;17.25;;;26.70;49.20;;;;;;7672450;22;83071;-59
2023/06/26 12:56:23;;;;;;;29.92;14.15;;;26.70;49.60;;;;;;7671573;22;83343;-59
2023/06/26 12:59:24;;;;;;;26.15;12.63;;;26.70;49.40;;;;;;7671510;22;83248;-59
2023/06/26 13:02:24;;;;;;;22.60;11.57;;;26.80;48.80;;;;;;7665415;22;83708;-59
2023/06/26 13:05:25;;;;;;;18.80;9.95;;;26.80;49.10;;;;;;7668956;22;82977;-59
2023/06/26 13:08:25;;;;;;;17.65;9.88;;;26.80;49.40;;;;;;7674621;22;81812;-58
2023/06/26 13:11:26;;;;;;;11.43;7.65;;;26.80;49.40;;;;;;7677039;22;80408;-59
2023/06/26 13:14:26;;;;;;;12.23;7.60;;;26.80;49.40;;;;;;7678405;22;80842;-61
2023/06/26 13:17:27;;;;;;;10.23;7.50;;;26.80;49.30;;;;;;7677530;22;82199;-58
2023/06/26 13:20:27;;;;;;;15.18;7.50;;;26.80;49.60;;;;;;7672839;22;81427;-55
2023/06/26 13:23:28;;;;;;;14.38;5.88;;;26.80;49.30;;;;;;7679070;22;80889;-53
2023/06/26 13:26:28;;;;;;;8.48;6.00;;;26.70;49.80;;;;;;7670221;22;81649;-52
2023/06/26 13:29:29;;;;;;;14.63;6.68;;;26.70;49.40;;;;;;7682373;22;80148;-56
2023/06/26 13:32:29;;;;;;;9.43;5.57;;;26.80;49.60;;;;;;7677847;22;80653;-57
2023/06/26 13:35:30;;;;;;;5.88;4.70;;;26.80;49.90;;;;;;7677788;22;80168;-60
2023/06/26 13:38:31;;;;;;;7.05;5.28;;;26.80;50.40;;;;;;7679894;22;80790;-60
2023/06/26 13:41:31;;;;;;;9.43;5.53;;;26.80;49.90;;;;;;7677782;22;80220;-61
2023/06/26 13:44:32;;;;;;;8.93;5.63;;;26.80;50.10;;;;;;7681833;22;80132;-54
2023/06/26 13:47:34;;;;;;;6.13;4.60;;;26.80;50.00;;;;;;7655489;22;83395;-54
2023/06/26 13:50:34;;;;;;;6.10;4.50;;;26.80;50.10;;;;;;7682185;22;85355;-55
2023/06/26 13:53:35;;;;;;;12.43;5.03;;;26.80;50.10;;;;;;7682708;22;80309;-53
2023/06/26 13:56:37;;;;;;;7.85;5.18;;;26.90;50.20;;;;;;7678006;22;79924;-56
2023/06/26 13:59:39;;;;;;;6.93;5.80;;;26.90;50.30;;;;;;7680541;22;81068;-54
2023/06/26 14:02:39;;;;;;;9.75;4.97;;;26.90;50.10;;;;;;7681739;22;80924;-54
2023/06/26 14:05:40;;;;;;;7.80;5.65;;;26.80;49.10;;;;;;7679086;22;80658;-52
2023/06/26 14:08:40;;;;;;;6.72;5.72;;;26.90;49.30;;;;;;7680626;22;80680;-54
2023/06/26 14:11:41;;;;;;;14.70;5.95;;;26.90;48.80;;;;;;7676143;22;80586;-54
2023/06/26 14:14:42;;;;;;;8.77;6.00;;;26.80;47.80;;;;;;7680384;22;80582;-54
2023/06/26 14:17:42;;;;;;;6.90;5.18;;;26.80;47.90;;;;;;7679938;22;80270;-56
2023/06/26 14:20:43;;;;;;;10.50;5.75;;;26.90;48.40;;;;;;7680965;22;80885;-55
2023/06/26 14:23:43;;;;;;;9.27;6.18;;;26.90;49.30;;;;;;7651136;22;82168;-55
2023/06/26 14:26:44;;;;;;;13.05;5.78;;;27.00;49.00;;;;;;7682452;22;80144;-54
2023/06/26 14:29:44;;;;;;;8.60;5.40;;;26.90;49.00;;;;;;7682112;22;80545;-54
2023/06/26 14:32:45;;;;;;;8.57;5.72;;;26.90;49.00;;;;;;7681566;22;80499;-56
2023/06/26 14:35:45;;;;;;;10.30;6.03;;;26.90;49.00;;;;;;7681267;22;80721;-54
2023/06/26 14:38:46;;;;;;;7.22;5.80;;;26.90;48.70;;;;;;7677731;22;80475;-54
2023/06/26 14:41:50;;;;;;;9.10;5.20;;;26.90;48.50;;;;;;7682520;22;80422;-55
2023/06/26 14:44:50;;;;;;;11.30;5.78;;;26.90;48.80;;;;;;7671076;22;80787;-59
2023/06/26 14:47:51;;;;;;;6.90;5.47;;;26.90;48.80;;;;;;7676507;22;80462;-57
2023/06/26 14:50:51;;;;;;;7.20;5.05;;;26.90;48.60;;;;;;7672940;22;80870;-59
2023/06/26 14:53:52;;;;;;;8.38;5.47;;;26.90;47.90;;;;;;7676444;22;80947;-57
2023/06/26 14:56:52;;;;;;;8.40;5.78;;;26.90;48.30;;;;;;7676785;22;80380;-57
2023/06/26 14:59:53;;;;;;;9.32;5.95;;;26.90;48.20;;;;;;7673369;22;80433;-58
2023/06/26 15:02:53;;;;;;;12.02;6.60;;;26.90;48.00;;;;;;7675050;22;80860;-73
2023/06/26 15:05:54;;;;;;;14.77;6.80;;;26.90;48.30;;;;;;7677718;22;80361;-71
2023/06/26 15:08:54;;;;;;;11.88;6.80;;;27.00;48.80;;;;;;7678105;22;80602;-73
2023/06/26 15:11:55;;;;;;;8.82;6.00;;;27.00;49.20;;;;;;7678769;22;80626;-68
2023/06/26 15:14:56;;;;;;;10.23;6.28;;;26.90;49.00;;;;;;7678821;22;80825;-65
2023/06/26 15:17:56;;;;;;;10.88;5.97;;;26.90;49.40;;;;;;7678203;22;80419;-74
2023/06/26 15:20:57;;;;;;;12.45;7.03;;;26.90;47.90;;;;;;7678567;22;80469;-68
2023/06/26 15:23:57;;;;;;;11.23;6.30;;;26.90;48.40;;;;;;7679084;22;80240;-69
2023/06/26 15:26:58;;;;;;;9.77;6.05;;;26.80;48.10;;;;;;7680049;22;80525;-70
2023/06/26 15:29:58;;;;;;;8.25;6.03;;;26.90;48.40;;;;;;7681170;22;81868;-68
2023/06/26 15:32:59;;;;;;;11.63;6.55;;;26.80;47.70;;;;;;7680914;22;81751;-68